HAZ2613 ZSHC-ZUTF
Flight info
| Callsign | HAZ2613 |
|---|---|
| Flight time | 2h 48m |
| Altitude | 34100 |
| Route | NIVIK5E NIVIK W135 DOGVI W545 VEMEX W73 MADUK W51 LEGIV W164 ADGOL W50 XSH W80 AKOPI AKOPI7T |
| Aircraft | E75L/M-SDE3GILORVW/S |
Departure
| Time | 2026-05-06 09:17 |
|---|---|
| Airport | Hangzhou Xiaoshan International Airport (ZSHC) |
Arrival
| Time | 2026-05-06 12:05 |
|---|---|
| Airport | Chengdu Tianfu International Airport (ZUTF) |
| Time | Latitude | Longitude | Altitude | Speed | Heading |
|---|---|---|---|---|---|
| 2026-05-06 08:57 | 30.23963 | 120.42313 | 27 ft | 0 kts | 137° |
| 2026-05-06 09:09 | 30.23965 | 120.42311 | 27 ft | 2 kts | 137° |
| 2026-05-06 09:09 | 30.23975 | 120.42300 | 27 ft | 2 kts | 137° |
| 2026-05-06 09:09 | 30.23986 | 120.42289 | 27 ft | 2 kts | 137° |
| 2026-05-06 09:10 | 30.23998 | 120.42277 | 27 ft | 2 kts | 137° |
| 2026-05-06 09:10 | 30.24009 | 120.42265 | 27 ft | 2 kts | 137° |
| 2026-05-06 09:10 | 30.24020 | 120.42253 | 27 ft | 2 kts | 137° |
| 2026-05-06 09:10 | 30.24032 | 120.42242 | 27 ft | 2 kts | 164° |
| 2026-05-06 09:11 | 30.24047 | 120.42242 | 27 ft | 2 kts | 196° |
| 2026-05-06 09:11 | 30.24060 | 120.42252 | 27 ft | 2 kts | 230° |
| 2026-05-06 09:11 | 30.24064 | 120.42258 | 27 ft | 1 kts | 249° |
| 2026-05-06 09:11 | 30.24066 | 120.42263 | 27 ft | 0 kts | 243° |
| 2026-05-06 09:13 | 30.24064 | 120.42260 | 27 ft | 0 kts | 243° |
| 2026-05-06 09:13 | 30.24058 | 120.42246 | 27 ft | 4 kts | 242° |
| 2026-05-06 09:13 | 30.24054 | 120.42193 | 27 ft | 7 kts | 294° |
| 2026-05-06 09:13 | 30.24097 | 120.42157 | 27 ft | 7 kts | 334° |
| 2026-05-06 09:14 | 30.24149 | 120.42127 | 27 ft | 8 kts | 332° |
| 2026-05-06 09:14 | 30.24172 | 120.42058 | 27 ft | 13 kts | 243° |
| 2026-05-06 09:14 | 30.24121 | 120.41943 | 27 ft | 18 kts | 243° |
| 2026-05-06 09:14 | 30.24061 | 120.41808 | 27 ft | 19 kts | 243° |
| 2026-05-06 09:15 | 30.23997 | 120.41663 | 27 ft | 22 kts | 243° |
| 2026-05-06 09:15 | 30.23924 | 120.41498 | 27 ft | 23 kts | 245° |
| 2026-05-06 09:15 | 30.23849 | 120.41327 | 27 ft | 24 kts | 242° |
| 2026-05-06 09:15 | 30.23781 | 120.41174 | 27 ft | 17 kts | 242° |
| 2026-05-06 09:16 | 30.23805 | 120.41088 | 27 ft | 10 kts | 329° |
| 2026-05-06 09:16 | 30.23866 | 120.41048 | 27 ft | 10 kts | 330° |
| 2026-05-06 09:16 | 30.23919 | 120.41056 | 27 ft | 0 kts | 59° |
| 2026-05-06 09:17 | 30.24038 | 120.41325 | 27 ft | 74 kts | 62° |
| 2026-05-06 09:17 | 30.24374 | 120.42085 | 27 ft | 134 kts | 63° |
| 2026-05-06 09:17 | 30.24838 | 120.43136 | 378 ft | 152 kts | 65° |
| 2026-05-06 09:17 | 30.25345 | 120.44269 | 966 ft | 160 kts | 65° |
| 2026-05-06 09:18 | 30.25853 | 120.45393 | 1553 ft | 165 kts | 65° |
| 2026-05-06 09:18 | 30.26425 | 120.46691 | 1785 ft | 194 kts | 66° |
| 2026-05-06 09:18 | 30.27081 | 120.48181 | 2053 ft | 221 kts | 65° |
| 2026-05-06 09:18 | 30.27805 | 120.49817 | 2545 ft | 238 kts | 65° |
| 2026-05-06 09:19 | 30.28562 | 120.51526 | 3304 ft | 242 kts | 65° |
| 2026-05-06 09:19 | 30.29355 | 120.53321 | 3729 ft | 262 kts | 64° |
| 2026-05-06 09:19 | 30.30206 | 120.55245 | 4269 ft | 275 kts | 64° |
| 2026-05-06 09:19 | 30.31089 | 120.57243 | 4984 ft | 281 kts | 64° |
| 2026-05-06 09:20 | 30.31972 | 120.59252 | 5763 ft | 283 kts | 66° |
| 2026-05-06 09:20 | 30.32311 | 120.61443 | 6462 ft | 283 kts | 99° |
| 2026-05-06 09:20 | 30.31551 | 120.63513 | 7142 ft | 283 kts | 132° |
| 2026-05-06 09:20 | 30.29995 | 120.64831 | 7710 ft | 278 kts | 153° |
| 2026-05-06 09:21 | 30.28250 | 120.65875 | 7769 ft | 285 kts | 154° |
| 2026-05-06 09:21 | 30.26450 | 120.66937 | 7875 ft | 297 kts | 154° |
| 2026-05-06 09:21 | 30.24578 | 120.68037 | 8431 ft | 301 kts | 154° |
| 2026-05-06 09:21 | 30.22736 | 120.69115 | 9134 ft | 299 kts | 155° |
| 2026-05-06 09:22 | 30.20756 | 120.69722 | 9744 ft | 297 kts | 184° |
| 2026-05-06 09:22 | 30.18790 | 120.69055 | 10339 ft | 295 kts | 216° |
| 2026-05-06 09:22 | 30.17426 | 120.67331 | 10900 ft | 295 kts | 241° |
| 2026-05-06 09:22 | 30.16443 | 120.65256 | 11478 ft | 297 kts | 243° |
| 2026-05-06 09:23 | 30.15477 | 120.63133 | 12078 ft | 299 kts | 244° |
| 2026-05-06 09:23 | 30.14515 | 120.60985 | 12501 ft | 309 kts | 244° |
| 2026-05-06 09:23 | 30.13523 | 120.58755 | 12780 ft | 323 kts | 244° |
| 2026-05-06 09:23 | 30.12487 | 120.56425 | 13333 ft | 327 kts | 244° |
| 2026-05-06 09:24 | 30.11470 | 120.54133 | 14262 ft | 317 kts | 244° |
| 2026-05-06 09:24 | 30.10485 | 120.51915 | 15140 ft | 308 kts | 245° |
| 2026-05-06 09:24 | 30.09522 | 120.49744 | 15869 ft | 305 kts | 245° |
| 2026-05-06 09:24 | 30.08554 | 120.47566 | 16398 ft | 308 kts | 245° |
| 2026-05-06 09:25 | 30.07577 | 120.45367 | 16879 ft | 311 kts | 245° |
| 2026-05-06 09:25 | 30.06610 | 120.43161 | 17378 ft | 313 kts | 250° |
| 2026-05-06 09:25 | 30.06263 | 120.40716 | 17829 ft | 313 kts | 278° |
| 2026-05-06 09:25 | 30.07019 | 120.38380 | 18145 ft | 322 kts | 304° |
| 2026-05-06 09:26 | 30.08731 | 120.36629 | 18209 ft | 342 kts | 329° |
| 2026-05-06 09:26 | 30.10896 | 120.35371 | 18451 ft | 353 kts | 330° |
| 2026-05-06 09:26 | 30.13114 | 120.34080 | 18870 ft | 356 kts | 330° |
| 2026-05-06 09:26 | 30.15315 | 120.32789 | 19383 ft | 356 kts | 329° |
| 2026-05-06 09:27 | 30.17525 | 120.31489 | 19892 ft | 356 kts | 329° |
| 2026-05-06 09:27 | 30.19715 | 120.30199 | 20373 ft | 357 kts | 329° |
| 2026-05-06 09:27 | 30.21935 | 120.28889 | 20816 ft | 359 kts | 329° |
| 2026-05-06 09:27 | 30.24165 | 120.27573 | 21205 ft | 362 kts | 329° |
| 2026-05-06 09:28 | 30.26427 | 120.26237 | 21600 ft | 364 kts | 329° |
| 2026-05-06 09:28 | 30.28687 | 120.24899 | 21987 ft | 366 kts | 329° |
| 2026-05-06 09:28 | 30.30967 | 120.23548 | 22399 ft | 367 kts | 329° |
| 2026-05-06 09:28 | 30.33250 | 120.22233 | 22768 ft | 371 kts | 332° |
| 2026-05-06 09:29 | 30.35630 | 120.21046 | 23150 ft | 373 kts | 333° |
| 2026-05-06 09:29 | 30.38019 | 120.19851 | 23547 ft | 374 kts | 332° |
| 2026-05-06 09:29 | 30.40384 | 120.18665 | 23929 ft | 375 kts | 333° |
| 2026-05-06 09:29 | 30.42809 | 120.17448 | 24275 ft | 378 kts | 333° |
| 2026-05-06 09:30 | 30.45216 | 120.16240 | 24617 ft | 380 kts | 332° |
| 2026-05-06 09:30 | 30.47639 | 120.15015 | 24952 ft | 381 kts | 330° |
| 2026-05-06 09:30 | 30.49865 | 120.13377 | 25264 ft | 378 kts | 320° |
| 2026-05-06 09:30 | 30.51980 | 120.11594 | 25623 ft | 379 kts | 320° |
| 2026-05-06 09:31 | 30.54113 | 120.09793 | 25963 ft | 380 kts | 320° |
| 2026-05-06 09:31 | 30.56269 | 120.07970 | 26274 ft | 382 kts | 320° |
| 2026-05-06 09:31 | 30.58407 | 120.06161 | 26565 ft | 384 kts | 320° |
| 2026-05-06 09:31 | 30.60553 | 120.04345 | 26863 ft | 385 kts | 320° |
| 2026-05-06 09:32 | 30.62725 | 120.02504 | 27154 ft | 387 kts | 320° |
| 2026-05-06 09:32 | 30.64916 | 120.00648 | 27476 ft | 388 kts | 320° |
| 2026-05-06 09:32 | 30.67086 | 119.98807 | 27756 ft | 389 kts | 320° |
| 2026-05-06 09:32 | 30.69301 | 119.96927 | 28030 ft | 391 kts | 320° |
| 2026-05-06 09:33 | 30.71480 | 119.95077 | 28297 ft | 392 kts | 320° |
| 2026-05-06 09:33 | 30.73693 | 119.93197 | 28602 ft | 393 kts | 320° |
| 2026-05-06 09:33 | 30.75887 | 119.91331 | 28853 ft | 394 kts | 320° |
| 2026-05-06 09:33 | 30.78103 | 119.89435 | 29108 ft | 396 kts | 320° |
| 2026-05-06 09:34 | 30.80340 | 119.87515 | 29332 ft | 398 kts | 320° |
| 2026-05-06 09:34 | 30.82543 | 119.85624 | 29560 ft | 399 kts | 320° |
| 2026-05-06 09:34 | 30.84783 | 119.83701 | 29805 ft | 400 kts | 320° |
| 2026-05-06 09:34 | 30.87035 | 119.81766 | 30038 ft | 402 kts | 320° |
| 2026-05-06 09:35 | 30.89278 | 119.79838 | 30234 ft | 404 kts | 320° |
| 2026-05-06 09:35 | 30.91552 | 119.77881 | 30471 ft | 405 kts | 320° |
| 2026-05-06 09:35 | 30.93801 | 119.75945 | 30686 ft | 406 kts | 320° |
| 2026-05-06 09:35 | 30.96072 | 119.73989 | 30848 ft | 408 kts | 320° |
| 2026-05-06 09:36 | 30.98386 | 119.71994 | 31049 ft | 409 kts | 320° |
| 2026-05-06 09:36 | 31.00671 | 119.70025 | 31261 ft | 410 kts | 320° |
| 2026-05-06 09:36 | 31.02976 | 119.68035 | 31442 ft | 412 kts | 321° |
| 2026-05-06 09:36 | 31.05331 | 119.66002 | 31642 ft | 413 kts | 320° |
| 2026-05-06 09:37 | 31.07658 | 119.63991 | 31810 ft | 415 kts | 321° |
| 2026-05-06 09:37 | 31.10002 | 119.61964 | 31975 ft | 417 kts | 321° |
| 2026-05-06 09:37 | 31.12314 | 119.59965 | 32191 ft | 417 kts | 320° |
| 2026-05-06 09:37 | 31.14681 | 119.57916 | 32385 ft | 418 kts | 321° |
| 2026-05-06 09:38 | 31.17012 | 119.55896 | 32571 ft | 419 kts | 321° |
| 2026-05-06 09:38 | 31.19355 | 119.53867 | 32729 ft | 420 kts | 321° |
| 2026-05-06 09:38 | 31.21726 | 119.51811 | 32885 ft | 422 kts | 321° |
| 2026-05-06 09:38 | 31.24094 | 119.49754 | 33041 ft | 423 kts | 321° |
| 2026-05-06 09:39 | 31.26457 | 119.47704 | 33211 ft | 424 kts | 321° |
| 2026-05-06 09:39 | 31.28801 | 119.45667 | 33403 ft | 425 kts | 321° |
| 2026-05-06 09:39 | 31.31200 | 119.43580 | 33598 ft | 425 kts | 321° |
| 2026-05-06 09:39 | 31.33559 | 119.41528 | 33761 ft | 427 kts | 320° |
| 2026-05-06 09:40 | 31.35957 | 119.39439 | 33926 ft | 426 kts | 320° |
| 2026-05-06 09:40 | 31.43150 | 119.33168 | 33963 ft | 434 kts | 320° |
| 2026-05-06 09:41 | 31.47986 | 119.28946 | 33962 ft | 433 kts | 320° |
| 2026-05-06 09:41 | 31.52823 | 119.24717 | 33955 ft | 432 kts | 320° |
| 2026-05-06 09:42 | 31.57607 | 119.20515 | 33952 ft | 432 kts | 320° |
| 2026-05-06 09:42 | 31.62437 | 119.16231 | 33950 ft | 431 kts | 320° |
| 2026-05-06 09:43 | 31.67055 | 119.11801 | 33962 ft | 430 kts | 315° |
| 2026-05-06 09:43 | 31.71541 | 119.07173 | 33952 ft | 430 kts | 316° |
| 2026-05-06 09:44 | 31.76080 | 119.02525 | 33952 ft | 431 kts | 316° |
| 2026-05-06 09:44 | 31.80357 | 118.97685 | 33958 ft | 426 kts | 305° |
| 2026-05-06 09:45 | 31.83166 | 118.91663 | 33958 ft | 422 kts | 288° |
| 2026-05-06 09:45 | 31.84241 | 118.84934 | 33959 ft | 423 kts | 272° |
| 2026-05-06 09:46 | 31.83829 | 118.78025 | 33954 ft | 424 kts | 265° |
| 2026-05-06 09:46 | 31.83228 | 118.71162 | 33955 ft | 424 kts | 265° |
| 2026-05-06 09:47 | 31.82614 | 118.64291 | 33955 ft | 423 kts | 265° |
| 2026-05-06 09:47 | 31.81997 | 118.57438 | 33952 ft | 422 kts | 265° |
| 2026-05-06 09:48 | 31.81373 | 118.50552 | 33949 ft | 423 kts | 265° |
| 2026-05-06 09:48 | 31.80751 | 118.43727 | 33947 ft | 423 kts | 265° |
| 2026-05-06 09:49 | 31.80120 | 118.36841 | 33942 ft | 423 kts | 265° |
| 2026-05-06 09:49 | 31.79265 | 118.30061 | 33947 ft | 426 kts | 256° |
| 2026-05-06 09:50 | 31.76964 | 118.23608 | 33945 ft | 429 kts | 248° |
| 2026-05-06 09:50 | 31.74489 | 118.17299 | 33940 ft | 428 kts | 248° |
| 2026-05-06 09:51 | 31.72036 | 118.10932 | 33934 ft | 427 kts | 252° |
| 2026-05-06 09:51 | 31.70534 | 118.04270 | 33939 ft | 424 kts | 258° |
| 2026-05-06 09:52 | 31.69156 | 117.97561 | 33930 ft | 424 kts | 258° |
| 2026-05-06 09:52 | 31.67759 | 117.90792 | 33925 ft | 424 kts | 258° |
| 2026-05-06 09:53 | 31.66378 | 117.84119 | 33926 ft | 424 kts | 258° |
| 2026-05-06 09:53 | 31.64980 | 117.77382 | 33922 ft | 422 kts | 258° |
| 2026-05-06 09:54 | 31.63595 | 117.70724 | 33922 ft | 422 kts | 258° |
| 2026-05-06 09:54 | 31.62192 | 117.64005 | 33919 ft | 424 kts | 258° |
| 2026-05-06 09:55 | 31.60796 | 117.57327 | 33919 ft | 421 kts | 259° |
| 2026-05-06 09:55 | 31.59610 | 117.50621 | 33918 ft | 422 kts | 260° |
| 2026-05-06 09:56 | 31.58422 | 117.43929 | 33913 ft | 420 kts | 260° |
| 2026-05-06 09:56 | 31.57222 | 117.37202 | 33915 ft | 422 kts | 260° |
| 2026-05-06 09:57 | 31.56021 | 117.30494 | 33926 ft | 422 kts | 259° |
| 2026-05-06 09:57 | 31.54828 | 117.23756 | 33933 ft | 423 kts | 259° |
| 2026-05-06 09:58 | 31.53640 | 117.17036 | 33931 ft | 422 kts | 259° |
| 2026-05-06 09:58 | 31.52453 | 117.10349 | 33934 ft | 421 kts | 259° |
| 2026-05-06 09:59 | 31.51257 | 117.03625 | 33934 ft | 420 kts | 259° |
| 2026-05-06 09:59 | 31.50066 | 116.96955 | 33934 ft | 421 kts | 259° |
| 2026-05-06 10:00 | 31.48868 | 116.90271 | 33938 ft | 421 kts | 259° |
| 2026-05-06 10:00 | 31.47087 | 116.83786 | 33944 ft | 423 kts | 245° |
| 2026-05-06 10:01 | 31.43670 | 116.78091 | 33944 ft | 429 kts | 236° |
| 2026-05-06 10:01 | 31.40027 | 116.72555 | 33940 ft | 428 kts | 236° |
| 2026-05-06 10:02 | 31.36397 | 116.67011 | 33950 ft | 427 kts | 236° |
| 2026-05-06 10:02 | 31.32799 | 116.61523 | 33966 ft | 427 kts | 236° |
| 2026-05-06 10:03 | 31.29185 | 116.56014 | 33990 ft | 428 kts | 236° |
| 2026-05-06 10:03 | 31.25565 | 116.50504 | 33996 ft | 428 kts | 236° |
| 2026-05-06 10:04 | 31.21932 | 116.44981 | 34014 ft | 427 kts | 236° |
| 2026-05-06 10:04 | 31.18326 | 116.39509 | 34021 ft | 427 kts | 236° |
| 2026-05-06 10:05 | 31.14715 | 116.34036 | 34030 ft | 428 kts | 236° |
| 2026-05-06 10:05 | 31.11071 | 116.28520 | 34039 ft | 426 kts | 236° |
| 2026-05-06 10:06 | 31.07431 | 116.23017 | 34040 ft | 429 kts | 236° |
| 2026-05-06 10:06 | 31.03807 | 116.17542 | 34041 ft | 427 kts | 236° |
| 2026-05-06 10:07 | 31.00174 | 116.12064 | 34042 ft | 426 kts | 236° |
| 2026-05-06 10:07 | 30.96571 | 116.06638 | 34041 ft | 427 kts | 236° |
| 2026-05-06 10:08 | 30.92933 | 116.01166 | 34038 ft | 427 kts | 236° |
| 2026-05-06 10:08 | 30.89279 | 115.95677 | 34025 ft | 427 kts | 236° |
| 2026-05-06 10:09 | 30.85650 | 115.90236 | 34004 ft | 427 kts | 236° |
| 2026-05-06 10:09 | 30.82017 | 115.84734 | 33986 ft | 428 kts | 236° |
| 2026-05-06 10:10 | 30.78419 | 115.79278 | 33972 ft | 427 kts | 236° |
| 2026-05-06 10:10 | 30.74815 | 115.73815 | 33962 ft | 427 kts | 236° |
| 2026-05-06 10:11 | 30.71199 | 115.68343 | 33963 ft | 427 kts | 236° |
| 2026-05-06 10:11 | 30.67586 | 115.62884 | 33956 ft | 428 kts | 236° |
| 2026-05-06 10:12 | 30.63953 | 115.57402 | 33950 ft | 429 kts | 236° |
| 2026-05-06 10:12 | 30.60313 | 115.51917 | 33945 ft | 428 kts | 236° |
| 2026-05-06 10:13 | 30.56644 | 115.46394 | 33940 ft | 427 kts | 236° |
| 2026-05-06 10:13 | 30.53031 | 115.40965 | 33930 ft | 427 kts | 236° |
| 2026-05-06 10:14 | 30.49386 | 115.35496 | 33922 ft | 427 kts | 236° |
| 2026-05-06 10:14 | 30.45991 | 115.29850 | 33931 ft | 425 kts | 246° |
| 2026-05-06 10:15 | 30.44259 | 115.23390 | 33930 ft | 420 kts | 262° |
| 2026-05-06 10:15 | 30.44410 | 115.16698 | 33922 ft | 421 kts | 279° |
| 2026-05-06 10:16 | 30.45227 | 115.10015 | 33915 ft | 421 kts | 276° |
| 2026-05-06 10:16 | 30.45933 | 115.03315 | 33907 ft | 421 kts | 276° |
| 2026-05-06 10:17 | 30.46628 | 114.96567 | 33901 ft | 422 kts | 276° |
| 2026-05-06 10:17 | 30.47320 | 114.89809 | 33904 ft | 421 kts | 276° |
| 2026-05-06 10:18 | 30.48002 | 114.83118 | 33900 ft | 422 kts | 276° |
| 2026-05-06 10:18 | 30.48686 | 114.76366 | 33898 ft | 421 kts | 276° |
| 2026-05-06 10:19 | 30.49368 | 114.69600 | 33890 ft | 422 kts | 276° |
| 2026-05-06 10:19 | 30.50041 | 114.62887 | 33886 ft | 422 kts | 276° |
| 2026-05-06 10:20 | 30.50710 | 114.56178 | 33883 ft | 419 kts | 276° |
| 2026-05-06 10:20 | 30.51380 | 114.49431 | 33883 ft | 422 kts | 276° |
| 2026-05-06 10:21 | 30.52045 | 114.42690 | 33876 ft | 422 kts | 276° |
| 2026-05-06 10:21 | 30.52705 | 114.35969 | 33870 ft | 421 kts | 276° |
| 2026-05-06 10:22 | 30.53364 | 114.29218 | 33886 ft | 421 kts | 276° |
| 2026-05-06 10:22 | 30.54014 | 114.22527 | 33893 ft | 421 kts | 276° |
| 2026-05-06 10:23 | 30.54652 | 114.15802 | 33888 ft | 420 kts | 275° |
| 2026-05-06 10:23 | 30.55300 | 114.09049 | 33886 ft | 421 kts | 276° |
| 2026-05-06 10:24 | 30.55953 | 114.02341 | 33884 ft | 419 kts | 275° |
| 2026-05-06 10:24 | 30.56580 | 113.95618 | 33884 ft | 420 kts | 275° |
| 2026-05-06 10:25 | 30.57206 | 113.88860 | 33882 ft | 420 kts | 275° |
| 2026-05-06 10:25 | 30.57685 | 113.82158 | 33881 ft | 420 kts | 269° |
| 2026-05-06 10:26 | 30.57438 | 113.75399 | 33884 ft | 420 kts | 268° |
| 2026-05-06 10:26 | 30.57186 | 113.68632 | 33882 ft | 421 kts | 268° |
| 2026-05-06 10:27 | 30.56931 | 113.61829 | 33879 ft | 420 kts | 268° |
| 2026-05-06 10:27 | 30.56674 | 113.55080 | 33878 ft | 421 kts | 268° |
| 2026-05-06 10:28 | 30.56414 | 113.48324 | 33877 ft | 421 kts | 268° |
| 2026-05-06 10:28 | 30.56148 | 113.41528 | 33874 ft | 421 kts | 268° |
| 2026-05-06 10:29 | 30.55880 | 113.34747 | 33877 ft | 422 kts | 267° |
| 2026-05-06 10:29 | 30.55610 | 113.28014 | 33881 ft | 422 kts | 267° |
| 2026-05-06 10:30 | 30.55335 | 113.21244 | 33881 ft | 421 kts | 267° |
| 2026-05-06 10:30 | 30.55057 | 113.14507 | 33881 ft | 421 kts | 267° |
| 2026-05-06 10:31 | 30.54778 | 113.07734 | 33878 ft | 420 kts | 267° |
| 2026-05-06 10:31 | 30.54495 | 113.00983 | 33877 ft | 421 kts | 268° |
| 2026-05-06 10:32 | 30.54209 | 112.94236 | 33871 ft | 421 kts | 268° |
| 2026-05-06 10:32 | 30.53918 | 112.87458 | 33864 ft | 421 kts | 267° |
| 2026-05-06 10:33 | 30.53627 | 112.80737 | 33856 ft | 419 kts | 268° |
| 2026-05-06 10:33 | 30.53331 | 112.73985 | 33871 ft | 420 kts | 267° |
| 2026-05-06 10:34 | 30.53031 | 112.67247 | 33868 ft | 420 kts | 267° |
| 2026-05-06 10:34 | 30.52727 | 112.60487 | 33868 ft | 419 kts | 267° |
| 2026-05-06 10:35 | 30.52420 | 112.53728 | 33867 ft | 420 kts | 268° |
| 2026-05-06 10:35 | 30.52110 | 112.46970 | 33866 ft | 419 kts | 268° |
| 2026-05-06 10:36 | 30.51797 | 112.40248 | 33863 ft | 419 kts | 268° |
| 2026-05-06 10:36 | 30.51482 | 112.33541 | 33865 ft | 417 kts | 267° |
| 2026-05-06 10:37 | 30.51162 | 112.26803 | 33867 ft | 419 kts | 267° |
| 2026-05-06 10:37 | 30.50839 | 112.20085 | 33865 ft | 416 kts | 267° |
| 2026-05-06 10:38 | 30.50513 | 112.13366 | 33857 ft | 418 kts | 267° |
| 2026-05-06 10:38 | 30.50185 | 112.06679 | 33854 ft | 418 kts | 267° |
| 2026-05-06 10:39 | 30.49852 | 111.99966 | 33842 ft | 417 kts | 267° |
| 2026-05-06 10:39 | 30.49517 | 111.93283 | 33851 ft | 417 kts | 267° |
| 2026-05-06 10:40 | 30.49179 | 111.86598 | 33855 ft | 416 kts | 267° |
| 2026-05-06 10:40 | 30.48836 | 111.79903 | 33854 ft | 416 kts | 267° |
| 2026-05-06 10:41 | 30.48491 | 111.73203 | 33858 ft | 417 kts | 267° |
| 2026-05-06 10:41 | 30.48138 | 111.66519 | 33864 ft | 418 kts | 267° |
| 2026-05-06 10:42 | 30.47779 | 111.59819 | 33882 ft | 418 kts | 267° |
| 2026-05-06 10:42 | 30.47417 | 111.53133 | 33885 ft | 416 kts | 267° |
| 2026-05-06 10:43 | 30.46888 | 111.46442 | 33896 ft | 417 kts | 262° |
| 2026-05-06 10:44 | 30.45526 | 111.36523 | 33912 ft | 416 kts | 262° |
| 2026-05-06 10:44 | 30.44611 | 111.29905 | 33932 ft | 415 kts | 262° |
| 2026-05-06 10:45 | 30.43695 | 111.23305 | 33951 ft | 416 kts | 262° |
| 2026-05-06 10:45 | 30.42777 | 111.16725 | 33978 ft | 414 kts | 262° |
| 2026-05-06 10:46 | 30.41853 | 111.10123 | 33994 ft | 414 kts | 262° |
| 2026-05-06 10:46 | 30.40928 | 111.03542 | 34021 ft | 416 kts | 262° |
| 2026-05-06 10:47 | 30.39999 | 110.96954 | 34039 ft | 414 kts | 262° |
| 2026-05-06 10:47 | 30.39072 | 110.90408 | 34066 ft | 413 kts | 262° |
| 2026-05-06 10:48 | 30.38134 | 110.83810 | 34082 ft | 413 kts | 262° |
| 2026-05-06 10:48 | 30.37201 | 110.77262 | 34093 ft | 414 kts | 262° |
| 2026-05-06 10:49 | 30.36264 | 110.70722 | 34094 ft | 416 kts | 262° |
| 2026-05-06 10:49 | 30.35321 | 110.64157 | 34081 ft | 414 kts | 262° |
| 2026-05-06 10:50 | 30.34370 | 110.57566 | 34077 ft | 414 kts | 261° |
| 2026-05-06 10:50 | 30.33422 | 110.51017 | 34061 ft | 414 kts | 262° |
| 2026-05-06 10:51 | 30.32466 | 110.44438 | 34054 ft | 413 kts | 261° |
| 2026-05-06 10:51 | 30.31510 | 110.37883 | 34056 ft | 414 kts | 261° |
| 2026-05-06 10:52 | 30.30554 | 110.31351 | 34075 ft | 413 kts | 261° |
| 2026-05-06 10:52 | 30.29593 | 110.24801 | 34074 ft | 414 kts | 261° |
| 2026-05-06 10:53 | 30.28623 | 110.18222 | 34087 ft | 413 kts | 261° |
| 2026-05-06 10:53 | 30.27659 | 110.11702 | 34098 ft | 415 kts | 261° |
| 2026-05-06 10:54 | 30.26689 | 110.05169 | 34094 ft | 414 kts | 261° |
| 2026-05-06 10:54 | 30.25712 | 109.98611 | 34134 ft | 413 kts | 261° |
| 2026-05-06 10:55 | 30.24733 | 109.92068 | 34134 ft | 413 kts | 261° |
| 2026-05-06 10:55 | 30.23755 | 109.85546 | 34104 ft | 414 kts | 261° |
| 2026-05-06 10:56 | 30.22771 | 109.79011 | 34101 ft | 414 kts | 261° |
| 2026-05-06 10:56 | 30.21785 | 109.72501 | 34092 ft | 412 kts | 261° |
| 2026-05-06 10:57 | 30.20795 | 109.65981 | 34072 ft | 414 kts | 261° |
| 2026-05-06 10:57 | 30.19699 | 109.59454 | 34042 ft | 413 kts | 255° |
| 2026-05-06 10:58 | 30.18027 | 109.53144 | 34040 ft | 414 kts | 255° |
| 2026-05-06 10:58 | 30.16345 | 109.46802 | 34017 ft | 412 kts | 255° |
| 2026-05-06 10:59 | 30.14671 | 109.40498 | 34008 ft | 414 kts | 254° |
| 2026-05-06 10:59 | 30.12981 | 109.34147 | 34015 ft | 414 kts | 254° |
| 2026-05-06 11:00 | 30.11286 | 109.27794 | 34027 ft | 413 kts | 254° |
| 2026-05-06 11:00 | 30.09605 | 109.21503 | 34033 ft | 414 kts | 254° |
| 2026-05-06 11:01 | 30.07899 | 109.15157 | 34038 ft | 413 kts | 254° |
| 2026-05-06 11:01 | 30.06191 | 109.08819 | 34027 ft | 413 kts | 254° |
| 2026-05-06 11:02 | 30.04486 | 109.02505 | 34027 ft | 412 kts | 254° |
| 2026-05-06 11:02 | 30.02776 | 108.96178 | 34019 ft | 412 kts | 254° |
| 2026-05-06 11:03 | 30.01119 | 108.89864 | 34019 ft | 413 kts | 254° |
| 2026-05-06 11:03 | 29.99453 | 108.83538 | 34012 ft | 412 kts | 254° |
| 2026-05-06 11:04 | 29.97790 | 108.77232 | 34013 ft | 413 kts | 255° |
| 2026-05-06 11:04 | 29.96121 | 108.70921 | 34013 ft | 412 kts | 255° |
| 2026-05-06 11:05 | 29.94449 | 108.64602 | 34007 ft | 413 kts | 254° |
| 2026-05-06 11:05 | 29.92786 | 108.58328 | 33998 ft | 411 kts | 254° |
| 2026-05-06 11:06 | 29.91112 | 108.52032 | 33997 ft | 411 kts | 254° |
| 2026-05-06 11:06 | 29.89439 | 108.45748 | 33990 ft | 413 kts | 254° |
| 2026-05-06 11:07 | 29.87754 | 108.39433 | 33996 ft | 413 kts | 254° |
| 2026-05-06 11:07 | 29.86064 | 108.33111 | 34024 ft | 411 kts | 254° |
| 2026-05-06 11:08 | 29.84379 | 108.26826 | 34048 ft | 412 kts | 254° |
| 2026-05-06 11:08 | 29.82699 | 108.20566 | 34052 ft | 412 kts | 254° |
| 2026-05-06 11:09 | 29.81002 | 108.14260 | 34039 ft | 412 kts | 254° |
| 2026-05-06 11:09 | 29.79305 | 108.07966 | 34014 ft | 412 kts | 254° |
| 2026-05-06 11:10 | 29.77604 | 108.01672 | 33992 ft | 412 kts | 254° |
| 2026-05-06 11:10 | 29.75905 | 107.95396 | 33984 ft | 412 kts | 254° |
| 2026-05-06 11:11 | 29.74198 | 107.89113 | 33995 ft | 413 kts | 254° |
| 2026-05-06 11:11 | 29.72483 | 107.82814 | 34004 ft | 412 kts | 254° |
| 2026-05-06 11:12 | 29.70760 | 107.76502 | 34028 ft | 412 kts | 254° |
| 2026-05-06 11:12 | 29.69046 | 107.70233 | 34031 ft | 412 kts | 254° |
| 2026-05-06 11:13 | 29.67328 | 107.63963 | 34017 ft | 413 kts | 254° |
| 2026-05-06 11:13 | 29.65950 | 107.57592 | 34003 ft | 412 kts | 265° |
| 2026-05-06 11:14 | 29.66421 | 107.51049 | 33982 ft | 414 kts | 283° |
| 2026-05-06 11:14 | 29.68176 | 107.44701 | 33961 ft | 416 kts | 285° |
| 2026-05-06 11:15 | 29.69864 | 107.38364 | 33948 ft | 415 kts | 284° |
| 2026-05-06 11:15 | 29.71216 | 107.31930 | 33948 ft | 415 kts | 281° |
| 2026-05-06 11:16 | 29.72530 | 107.25446 | 33931 ft | 416 kts | 281° |
| 2026-05-06 11:16 | 29.74643 | 107.19287 | 33931 ft | 421 kts | 298° |
| 2026-05-06 11:17 | 29.78527 | 107.14155 | 33926 ft | 433 kts | 315° |
| 2026-05-06 11:17 | 29.83028 | 107.09621 | 33921 ft | 431 kts | 313° |
| 2026-05-06 11:18 | 29.87480 | 107.04982 | 33924 ft | 431 kts | 313° |
| 2026-05-06 11:18 | 29.91896 | 107.00362 | 33930 ft | 430 kts | 313° |
| 2026-05-06 11:19 | 29.96336 | 106.95708 | 33935 ft | 431 kts | 313° |
| 2026-05-06 11:19 | 30.00790 | 106.91034 | 33953 ft | 432 kts | 313° |
| 2026-05-06 11:20 | 30.05212 | 106.86387 | 33958 ft | 431 kts | 313° |
| 2026-05-06 11:20 | 30.09648 | 106.81720 | 33958 ft | 431 kts | 313° |
| 2026-05-06 11:21 | 30.14074 | 106.77057 | 33957 ft | 432 kts | 313° |
| 2026-05-06 11:21 | 30.18484 | 106.72404 | 33952 ft | 431 kts | 313° |
| 2026-05-06 11:22 | 30.22902 | 106.67738 | 33948 ft | 431 kts | 313° |
| 2026-05-06 11:22 | 30.27301 | 106.63083 | 33939 ft | 432 kts | 313° |
| 2026-05-06 11:23 | 30.31737 | 106.58385 | 33940 ft | 431 kts | 313° |
| 2026-05-06 11:23 | 30.36151 | 106.53705 | 33940 ft | 433 kts | 313° |
| 2026-05-06 11:24 | 30.40586 | 106.48995 | 33939 ft | 432 kts | 313° |
| 2026-05-06 11:24 | 30.44943 | 106.44363 | 33939 ft | 426 kts | 313° |
| 2026-05-06 11:25 | 30.49318 | 106.39706 | 33937 ft | 427 kts | 313° |
| 2026-05-06 11:25 | 30.53680 | 106.35055 | 33875 ft | 427 kts | 313° |
| 2026-05-06 11:25 | 30.55663 | 106.32543 | 33441 ft | 424 kts | 303° |
| 2026-05-06 11:26 | 30.57225 | 106.29671 | 33052 ft | 420 kts | 294° |
| 2026-05-06 11:26 | 30.58321 | 106.26543 | 32679 ft | 419 kts | 287° |
| 2026-05-06 11:26 | 30.59138 | 106.23235 | 32289 ft | 420 kts | 279° |
| 2026-05-06 11:26 | 30.59431 | 106.19880 | 31985 ft | 419 kts | 270° |
| 2026-05-06 11:27 | 30.59181 | 106.16518 | 31962 ft | 421 kts | 260° |
| 2026-05-06 11:27 | 30.58063 | 106.09886 | 31946 ft | 423 kts | 263° |
| 2026-05-06 11:28 | 30.57308 | 106.03115 | 31779 ft | 424 kts | 264° |
| 2026-05-06 11:28 | 30.56956 | 105.99749 | 31325 ft | 420 kts | 264° |
| 2026-05-06 11:28 | 30.56612 | 105.96440 | 31201 ft | 414 kts | 264° |
| 2026-05-06 11:28 | 30.56267 | 105.93116 | 30704 ft | 417 kts | 264° |
| 2026-05-06 11:29 | 30.55916 | 105.89750 | 30157 ft | 414 kts | 264° |
| 2026-05-06 11:29 | 30.55573 | 105.86459 | 29616 ft | 411 kts | 264° |
| 2026-05-06 11:29 | 30.55231 | 105.83194 | 28995 ft | 409 kts | 264° |
| 2026-05-06 11:29 | 30.54893 | 105.79971 | 28347 ft | 405 kts | 264° |
| 2026-05-06 11:30 | 30.54552 | 105.76725 | 27692 ft | 402 kts | 264° |
| 2026-05-06 11:30 | 30.54215 | 105.73537 | 27023 ft | 399 kts | 264° |
| 2026-05-06 11:30 | 30.53883 | 105.70387 | 26248 ft | 397 kts | 263° |
| 2026-05-06 11:30 | 30.53546 | 105.67212 | 25470 ft | 394 kts | 263° |
| 2026-05-06 11:31 | 30.53214 | 105.64094 | 24703 ft | 390 kts | 263° |
| 2026-05-06 11:31 | 30.52886 | 105.61017 | 23938 ft | 387 kts | 263° |
| 2026-05-06 11:31 | 30.52558 | 105.57946 | 23181 ft | 383 kts | 263° |
| 2026-05-06 11:31 | 30.52234 | 105.54906 | 22430 ft | 380 kts | 263° |
| 2026-05-06 11:32 | 30.51911 | 105.51879 | 21455 ft | 384 kts | 263° |
| 2026-05-06 11:32 | 30.51582 | 105.48808 | 20559 ft | 381 kts | 263° |
| 2026-05-06 11:32 | 30.51263 | 105.45833 | 20113 ft | 368 kts | 263° |
| 2026-05-06 11:32 | 30.50949 | 105.42918 | 19710 ft | 366 kts | 263° |
| 2026-05-06 11:33 | 30.50636 | 105.40012 | 19312 ft | 368 kts | 263° |
| 2026-05-06 11:33 | 30.50316 | 105.37046 | 18901 ft | 370 kts | 263° |
| 2026-05-06 11:33 | 30.49997 | 105.34103 | 18596 ft | 369 kts | 262° |
| 2026-05-06 11:33 | 30.49682 | 105.31201 | 18201 ft | 368 kts | 262° |
| 2026-05-06 11:34 | 30.49359 | 105.28251 | 17800 ft | 367 kts | 262° |
| 2026-05-06 11:34 | 30.49035 | 105.25304 | 17399 ft | 365 kts | 262° |
| 2026-05-06 11:34 | 30.48717 | 105.22424 | 16998 ft | 364 kts | 262° |
| 2026-05-06 11:34 | 30.48350 | 105.19548 | 16589 ft | 362 kts | 255° |
| 2026-05-06 11:35 | 30.47208 | 105.16953 | 16207 ft | 361 kts | 233° |
| 2026-05-06 11:35 | 30.45623 | 105.14743 | 15795 ft | 360 kts | 230° |
| 2026-05-06 11:35 | 30.44004 | 105.12550 | 15389 ft | 358 kts | 230° |
| 2026-05-06 11:35 | 30.42367 | 105.10347 | 14989 ft | 357 kts | 230° |
| 2026-05-06 11:36 | 30.40755 | 105.08182 | 14598 ft | 355 kts | 231° |
| 2026-05-06 11:36 | 30.39144 | 105.06022 | 14205 ft | 353 kts | 231° |
| 2026-05-06 11:36 | 30.37546 | 105.03882 | 13817 ft | 352 kts | 231° |
| 2026-05-06 11:36 | 30.35964 | 105.01765 | 13436 ft | 350 kts | 231° |
| 2026-05-06 11:37 | 30.34372 | 104.99635 | 13048 ft | 348 kts | 231° |
| 2026-05-06 11:37 | 30.32762 | 104.97482 | 12658 ft | 351 kts | 231° |
| 2026-05-06 11:37 | 30.31148 | 104.95358 | 12279 ft | 353 kts | 231° |
| 2026-05-06 11:37 | 30.29520 | 104.93237 | 11895 ft | 353 kts | 230° |
| 2026-05-06 11:38 | 30.27919 | 104.91155 | 11495 ft | 341 kts | 231° |
| 2026-05-06 11:38 | 30.26381 | 104.89155 | 11128 ft | 330 kts | 231° |
| 2026-05-06 11:38 | 30.24883 | 104.87209 | 10771 ft | 320 kts | 231° |
| 2026-05-06 11:38 | 30.23416 | 104.85302 | 10421 ft | 311 kts | 231° |
| 2026-05-06 11:39 | 30.22003 | 104.83467 | 10075 ft | 304 kts | 231° |
| 2026-05-06 11:39 | 30.20612 | 104.81663 | 9749 ft | 297 kts | 231° |
| 2026-05-06 11:39 | 30.19252 | 104.79897 | 9430 ft | 291 kts | 231° |
| 2026-05-06 11:39 | 30.17708 | 104.78456 | 9121 ft | 288 kts | 201° |
| 2026-05-06 11:40 | 30.15775 | 104.78164 | 8945 ft | 279 kts | 164° |
| 2026-05-06 11:40 | 30.14021 | 104.79009 | 8933 ft | 271 kts | 143° |
| 2026-05-06 11:40 | 30.12409 | 104.80138 | 8911 ft | 272 kts | 141° |
| 2026-05-06 11:40 | 30.10794 | 104.81335 | 8920 ft | 289 kts | 141° |
| 2026-05-06 11:41 | 30.08842 | 104.82306 | 8937 ft | 314 kts | 159° |
| 2026-05-06 11:41 | 30.06729 | 104.83000 | 8910 ft | 317 kts | 160° |
| 2026-05-06 11:41 | 30.04609 | 104.83704 | 8898 ft | 314 kts | 160° |
| 2026-05-06 11:41 | 30.02523 | 104.84365 | 8893 ft | 316 kts | 167° |
| 2026-05-06 11:42 | 30.00297 | 104.84453 | 8909 ft | 319 kts | 179° |
| 2026-05-06 11:42 | 29.98053 | 104.84409 | 8892 ft | 319 kts | 179° |
| 2026-05-06 11:42 | 29.95840 | 104.84363 | 8892 ft | 317 kts | 179° |
| 2026-05-06 11:42 | 29.93640 | 104.84106 | 8886 ft | 318 kts | 195° |
| 2026-05-06 11:43 | 29.91516 | 104.83320 | 8904 ft | 322 kts | 198° |
| 2026-05-06 11:43 | 29.89393 | 104.82502 | 8895 ft | 321 kts | 198° |
| 2026-05-06 11:43 | 29.87268 | 104.81679 | 8891 ft | 320 kts | 200° |
| 2026-05-06 11:44 | 29.83527 | 104.78922 | 8896 ft | 320 kts | 218° |
| 2026-05-06 11:44 | 29.81724 | 104.77414 | 8896 ft | 319 kts | 217° |
| 2026-05-06 11:44 | 29.79962 | 104.75841 | 8891 ft | 319 kts | 229° |
| 2026-05-06 11:44 | 29.78593 | 104.73855 | 8916 ft | 316 kts | 236° |
| 2026-05-06 11:45 | 29.77482 | 104.71726 | 8887 ft | 297 kts | 259° |
| 2026-05-06 11:45 | 29.77418 | 104.69549 | 8908 ft | 259 kts | 295° |
| 2026-05-06 11:45 | 29.78254 | 104.67823 | 8932 ft | 243 kts | 316° |
| 2026-05-06 11:45 | 29.79444 | 104.66464 | 8918 ft | 239 kts | 327° |
| 2026-05-06 11:46 | 29.80777 | 104.65327 | 8912 ft | 237 kts | 332° |
| 2026-05-06 11:46 | 29.82165 | 104.64317 | 8908 ft | 236 kts | 335° |
| 2026-05-06 11:46 | 29.83594 | 104.63366 | 8906 ft | 236 kts | 337° |
| 2026-05-06 11:46 | 29.85025 | 104.62460 | 8903 ft | 235 kts | 337° |
| 2026-05-06 11:47 | 29.86472 | 104.61567 | 8902 ft | 234 kts | 338° |
| 2026-05-06 11:47 | 29.87919 | 104.60686 | 8901 ft | 235 kts | 339° |
| 2026-05-06 11:47 | 29.89375 | 104.59808 | 8901 ft | 236 kts | 339° |
| 2026-05-06 11:47 | 29.90827 | 104.58934 | 8903 ft | 235 kts | 339° |
| 2026-05-06 11:48 | 29.92288 | 104.58057 | 8904 ft | 234 kts | 339° |
| 2026-05-06 11:48 | 29.93747 | 104.57182 | 8905 ft | 236 kts | 339° |
| 2026-05-06 11:48 | 29.95193 | 104.56314 | 8905 ft | 234 kts | 339° |
| 2026-05-06 11:48 | 29.96634 | 104.55450 | 8908 ft | 232 kts | 339° |
| 2026-05-06 11:49 | 29.98059 | 104.54562 | 8904 ft | 237 kts | 331° |
| 2026-05-06 11:49 | 29.99085 | 104.52996 | 8928 ft | 249 kts | 302° |
| 2026-05-06 11:49 | 29.99722 | 104.51202 | 8901 ft | 236 kts | 302° |
| 2026-05-06 11:49 | 30.00342 | 104.49456 | 8906 ft | 234 kts | 302° |
| 2026-05-06 11:50 | 30.00964 | 104.47710 | 8914 ft | 237 kts | 302° |
| 2026-05-06 11:50 | 30.01269 | 104.45826 | 8923 ft | 256 kts | 267° |
| 2026-05-06 11:50 | 30.00502 | 104.43930 | 8955 ft | 271 kts | 227° |
| 2026-05-06 11:50 | 29.98896 | 104.42819 | 8963 ft | 271 kts | 195° |
| 2026-05-06 11:51 | 29.97087 | 104.42152 | 8933 ft | 272 kts | 197° |
| 2026-05-06 11:51 | 29.95313 | 104.41410 | 8929 ft | 270 kts | 199° |
| 2026-05-06 11:51 | 29.93570 | 104.40636 | 8966 ft | 270 kts | 200° |
| 2026-05-06 11:51 | 29.91831 | 104.39842 | 8932 ft | 262 kts | 200° |
| 2026-05-06 11:52 | 29.90185 | 104.39081 | 8904 ft | 247 kts | 200° |
| 2026-05-06 11:52 | 29.88601 | 104.38345 | 8921 ft | 243 kts | 200° |
| 2026-05-06 11:52 | 29.87011 | 104.37605 | 8936 ft | 248 kts | 200° |
| 2026-05-06 11:52 | 29.85425 | 104.36864 | 8936 ft | 249 kts | 201° |
| 2026-05-06 11:53 | 29.83807 | 104.36107 | 8935 ft | 250 kts | 202° |
| 2026-05-06 11:53 | 29.82478 | 104.34860 | 8950 ft | 248 kts | 245° |
| 2026-05-06 11:53 | 29.82101 | 104.33041 | 8970 ft | 226 kts | 289° |
| 2026-05-06 11:53 | 29.82528 | 104.31362 | 8961 ft | 218 kts | 301° |
| 2026-05-06 11:54 | 29.83053 | 104.29739 | 8931 ft | 214 kts | 302° |
| 2026-05-06 11:54 | 29.83597 | 104.28129 | 8927 ft | 216 kts | 302° |
| 2026-05-06 11:54 | 29.84152 | 104.26524 | 8924 ft | 214 kts | 302° |
| 2026-05-06 11:54 | 29.84898 | 104.25173 | 8919 ft | 191 kts | 337° |
| 2026-05-06 11:55 | 29.86091 | 104.24881 | 9008 ft | 172 kts | 13° |
| 2026-05-06 11:55 | 29.87270 | 104.25077 | 9035 ft | 173 kts | 13° |
| 2026-05-06 11:55 | 29.88410 | 104.25445 | 9017 ft | 168 kts | 25° |
| 2026-05-06 11:55 | 29.89502 | 104.25967 | 9014 ft | 169 kts | 25° |
| 2026-05-06 11:56 | 29.90573 | 104.26482 | 9015 ft | 166 kts | 25° |
| 2026-05-06 11:56 | 29.91667 | 104.27010 | 8888 ft | 171 kts | 24° |
| 2026-05-06 11:56 | 29.92769 | 104.27520 | 8709 ft | 171 kts | 24° |
| 2026-05-06 11:56 | 29.93867 | 104.28029 | 8513 ft | 169 kts | 25° |
| 2026-05-06 11:57 | 29.94964 | 104.28539 | 8304 ft | 170 kts | 24° |
| 2026-05-06 11:57 | 29.96067 | 104.29053 | 8090 ft | 170 kts | 24° |
| 2026-05-06 11:57 | 29.97158 | 104.29559 | 7867 ft | 169 kts | 24° |
| 2026-05-06 11:57 | 29.98259 | 104.30071 | 7638 ft | 171 kts | 24° |
| 2026-05-06 11:58 | 29.99359 | 104.30585 | 7409 ft | 171 kts | 24° |
| 2026-05-06 11:58 | 30.00458 | 104.31095 | 7175 ft | 171 kts | 24° |
| 2026-05-06 11:58 | 30.01567 | 104.31612 | 6936 ft | 172 kts | 24° |
| 2026-05-06 11:58 | 30.02671 | 104.32127 | 6698 ft | 170 kts | 24° |
| 2026-05-06 11:59 | 30.03779 | 104.32641 | 6455 ft | 171 kts | 24° |
| 2026-05-06 11:59 | 30.04884 | 104.33157 | 6224 ft | 171 kts | 24° |
| 2026-05-06 11:59 | 30.05990 | 104.33673 | 5986 ft | 170 kts | 24° |
| 2026-05-06 11:59 | 30.07076 | 104.34178 | 5752 ft | 169 kts | 24° |
| 2026-05-06 12:00 | 30.08158 | 104.34683 | 5525 ft | 168 kts | 24° |
| 2026-05-06 12:00 | 30.09254 | 104.35195 | 5290 ft | 168 kts | 23° |
| 2026-05-06 12:00 | 30.10323 | 104.35691 | 5193 ft | 166 kts | 23° |
| 2026-05-06 12:00 | 30.11418 | 104.36196 | 4927 ft | 171 kts | 23° |
| 2026-05-06 12:01 | 30.12525 | 104.36711 | 4663 ft | 174 kts | 22° |
| 2026-05-06 12:01 | 30.13650 | 104.37238 | 4407 ft | 174 kts | 22° |
| 2026-05-06 12:01 | 30.14764 | 104.37761 | 4159 ft | 174 kts | 22° |
| 2026-05-06 12:01 | 30.15865 | 104.38274 | 3913 ft | 166 kts | 21° |
| 2026-05-06 12:02 | 30.16922 | 104.38769 | 3675 ft | 155 kts | 21° |
| 2026-05-06 12:02 | 30.17895 | 104.39225 | 3468 ft | 149 kts | 21° |
| 2026-05-06 12:02 | 30.18848 | 104.39670 | 3277 ft | 149 kts | 21° |
| 2026-05-06 12:02 | 30.19824 | 104.40128 | 3088 ft | 149 kts | 20° |
| 2026-05-06 12:03 | 30.20749 | 104.40560 | 2876 ft | 137 kts | 21° |
| 2026-05-06 12:03 | 30.21597 | 104.40955 | 2685 ft | 123 kts | 23° |
| 2026-05-06 12:03 | 30.22392 | 104.41329 | 2542 ft | 122 kts | 21° |
| 2026-05-06 12:03 | 30.23195 | 104.41706 | 2401 ft | 125 kts | 20° |
| 2026-05-06 12:04 | 30.24015 | 104.42088 | 2245 ft | 131 kts | 25° |
| 2026-05-06 12:04 | 30.24854 | 104.42493 | 2073 ft | 131 kts | 22° |
| 2026-05-06 12:04 | 30.25707 | 104.42899 | 1908 ft | 130 kts | 22° |
| 2026-05-06 12:04 | 30.26580 | 104.43270 | 1728 ft | 137 kts | 23° |
| 2026-05-06 12:05 | 30.27447 | 104.43694 | 1573 ft | 130 kts | 22° |
| 2026-05-06 12:05 | 30.28268 | 104.44083 | 1458 ft | 117 kts | 15° |
| 2026-05-06 12:05 | 30.28849 | 104.44354 | 1458 ft | 58 kts | 19° |
| 2026-05-06 12:05 | 30.29098 | 104.44453 | 1458 ft | 33 kts | 4° |
| 2026-05-06 12:06 | 30.29295 | 104.44450 | 1458 ft | 25 kts | 355° |
| 2026-05-06 12:06 | 30.29467 | 104.44447 | 1458 ft | 21 kts | 7° |
| 2026-05-06 12:06 | 30.29597 | 104.44492 | 1458 ft | 18 kts | 21° |
| 2026-05-06 12:06 | 30.29713 | 104.44541 | 1458 ft | 16 kts | 19° |
| 2026-05-06 12:07 | 30.29813 | 104.44590 | 1458 ft | 14 kts | 24° |
| 2026-05-06 12:07 | 30.29904 | 104.44634 | 1458 ft | 13 kts | 23° |
| 2026-05-06 12:07 | 30.30001 | 104.44683 | 1458 ft | 17 kts | 23° |
| 2026-05-06 12:07 | 30.30130 | 104.44743 | 1458 ft | 22 kts | 23° |
| 2026-05-06 12:08 | 30.30285 | 104.44817 | 1458 ft | 24 kts | 22° |
| 2026-05-06 12:08 | 30.30438 | 104.44888 | 1458 ft | 20 kts | 22° |
| 2026-05-06 12:08 | 30.30521 | 104.44828 | 1458 ft | 17 kts | 292° |
| 2026-05-06 12:08 | 30.30605 | 104.44788 | 1458 ft | 15 kts | 20° |
| 2026-05-06 12:09 | 30.30707 | 104.44836 | 1458 ft | 16 kts | 23° |
| 2026-05-06 12:09 | 30.30814 | 104.44886 | 1458 ft | 16 kts | 22° |
| 2026-05-06 12:09 | 30.30907 | 104.44875 | 1458 ft | 15 kts | 290° |
| 2026-05-06 12:09 | 30.30946 | 104.44767 | 1458 ft | 9 kts | 292° |
| 2026-05-06 12:10 | 30.30995 | 104.44750 | 1458 ft | 6 kts | 17° |
| 2026-05-06 12:10 | 30.31027 | 104.44760 | 1458 ft | 0 kts | 16° |
| 2026-05-06 12:10 | 30.31031 | 104.44761 | 1458 ft | 1 kts | 16° |
| 2026-05-06 12:10 | 30.31033 | 104.44762 | 1458 ft | 0 kts | 16° |